sensor_id;sensor_type;location;lat;lon;timestamp;P1;durP1;ratioP1;P2;durP2;ratioP2
27313;SDS011;14800;48.174;9.798;2023-02-12T00:01:38;46.70;;;28.45;;
27313;SDS011;14800;48.174;9.798;2023-02-12T00:04:04;50.28;;;29.05;;
27313;SDS011;14800;48.174;9.798;2023-02-12T00:06:29;48.65;;;29.52;;
27313;SDS011;14800;48.174;9.798;2023-02-12T00:08:57;46.15;;;28.13;;
27313;SDS011;14800;48.174;9.798;2023-02-12T00:11:24;46.70;;;27.40;;
27313;SDS011;14800;48.174;9.798;2023-02-12T00:13:51;47.63;;;27.30;;
27313;SDS011;14800;48.174;9.798;2023-02-12T00:16:19;44.92;;;25.77;;
27313;SDS011;14800;48.174;9.798;2023-02-12T00:18:46;48.30;;;26.00;;
27313;SDS011;14800;48.174;9.798;2023-02-12T00:21:14;47.75;;;25.80;;
27313;SDS011;14800;48.174;9.798;2023-02-12T00:23:41;44.20;;;25.45;;
27313;SDS011;14800;48.174;9.798;2023-02-12T00:26:08;43.83;;;26.20;;
27313;SDS011;14800;48.174;9.798;2023-02-12T00:28:35;43.75;;;24.73;;
27313;SDS011;14800;48.174;9.798;2023-02-12T00:31:11;41.40;;;25.58;;
27313;SDS011;14800;48.174;9.798;2023-02-12T00:33:41;43.33;;;25.75;;
27313;SDS011;14800;48.174;9.798;2023-02-12T00:36:07;43.92;;;26.15;;
27313;SDS011;14800;48.174;9.798;2023-02-12T00:38:34;42.50;;;25.80;;
27313;SDS011;14800;48.174;9.798;2023-02-12T00:41:00;43.75;;;26.75;;
27313;SDS011;14800;48.174;9.798;2023-02-12T00:43:25;44.85;;;26.42;;
27313;SDS011;14800;48.174;9.798;2023-02-12T00:45:51;42.78;;;25.50;;
27313;SDS011;14800;48.174;9.798;2023-02-12T00:48:16;45.97;;;27.08;;
27313;SDS011;14800;48.174;9.798;2023-02-12T00:50:45;45.63;;;26.83;;
27313;SDS011;14800;48.174;9.798;2023-02-12T00:53:12;46.45;;;27.38;;
27313;SDS011;14800;48.174;9.798;2023-02-12T00:55:38;45.83;;;27.70;;
27313;SDS011;14800;48.174;9.798;2023-02-12T00:58:04;46.95;;;27.38;;
27313;SDS011;14800;48.174;9.798;2023-02-12T01:00:30;46.20;;;27.02;;
27313;SDS011;14800;48.174;9.798;2023-02-12T01:02:56;44.28;;;25.90;;
27313;SDS011;14800;48.174;9.798;2023-02-12T01:05:22;43.90;;;26.00;;
27313;SDS011;14800;48.174;9.798;2023-02-12T01:07:51;44.13;;;26.40;;
27313;SDS011;14800;48.174;9.798;2023-02-12T01:10:17;43.25;;;25.13;;
27313;SDS011;14800;48.174;9.798;2023-02-12T01:12:44;47.22;;;26.73;;
27313;SDS011;14800;48.174;9.798;2023-02-12T01:15:11;43.97;;;25.63;;
27313;SDS011;14800;48.174;9.798;2023-02-12T01:17:36;44.80;;;25.55;;
27313;SDS011;14800;48.174;9.798;2023-02-12T01:20:03;41.92;;;25.58;;
27313;SDS011;14800;48.174;9.798;2023-02-12T01:22:32;42.05;;;24.08;;
27313;SDS011;14800;48.174;9.798;2023-02-12T01:24:58;40.65;;;24.63;;
27313;SDS011;14800;48.174;9.798;2023-02-12T01:27:24;41.03;;;24.27;;
27313;SDS011;14800;48.174;9.798;2023-02-12T01:29:50;40.13;;;24.55;;
27313;SDS011;14800;48.174;9.798;2023-02-12T01:32:15;40.20;;;23.95;;
27313;SDS011;14800;48.174;9.798;2023-02-12T01:34:41;42.45;;;23.92;;
27313;SDS011;14800;48.174;9.798;2023-02-12T01:37:06;40.83;;;23.67;;
27313;SDS011;14800;48.174;9.798;2023-02-12T01:39:32;38.53;;;22.75;;
27313;SDS011;14800;48.174;9.798;2023-02-12T01:42:00;37.78;;;23.60;;
27313;SDS011;14800;48.174;9.798;2023-02-12T01:44:29;43.33;;;25.38;;
27313;SDS011;14800;48.174;9.798;2023-02-12T01:46:59;43.53;;;25.83;;
27313;SDS011;14800;48.174;9.798;2023-02-12T01:49:29;45.65;;;27.35;;
27313;SDS011;14800;48.174;9.798;2023-02-12T01:52:05;47.05;;;28.02;;
27313;SDS011;14800;48.174;9.798;2023-02-12T01:54:32;43.88;;;27.52;;
27313;SDS011;14800;48.174;9.798;2023-02-12T01:56:59;46.22;;;27.63;;
27313;SDS011;14800;48.174;9.798;2023-02-12T01:59:26;47.88;;;27.02;;
27313;SDS011;14800;48.174;9.798;2023-02-12T02:01:53;43.38;;;26.80;;
27313;SDS011;14800;48.174;9.798;2023-02-12T02:04:20;42.45;;;27.02;;
27313;SDS011;14800;48.174;9.798;2023-02-12T02:09:23;42.08;;;25.27;;
27313;SDS011;14800;48.174;9.798;2023-02-12T02:11:49;42.17;;;25.25;;
27313;SDS011;14800;48.174;9.798;2023-02-12T02:14:34;48.30;;;26.88;;
27313;SDS011;14800;48.174;9.798;2023-02-12T02:22:37;43.53;;;24.83;;
27313;SDS011;14800;48.174;9.798;2023-02-12T02:38:55;42.65;;;26.88;;
27313;SDS011;14800;48.174;9.798;2023-02-12T02:41:59;42.58;;;24.60;;
27313;SDS011;14800;48.174;9.798;2023-02-12T02:44:41;47.38;;;26.75;;
27313;SDS011;14800;48.174;9.798;2023-02-12T02:47:13;43.58;;;26.10;;
27313;SDS011;14800;48.174;9.798;2023-02-12T02:49:42;45.50;;;26.75;;
27313;SDS011;14800;48.174;9.798;2023-02-12T02:52:14;42.60;;;25.65;;
27313;SDS011;14800;48.174;9.798;2023-02-12T02:54:47;43.97;;;25.20;;
27313;SDS011;14800;48.174;9.798;2023-02-12T02:57:18;45.33;;;26.38;;
27313;SDS011;14800;48.174;9.798;2023-02-12T03:00:00;42.45;;;26.05;;
27313;SDS011;14800;48.174;9.798;2023-02-12T03:02:32;47.65;;;26.88;;
27313;SDS011;14800;48.174;9.798;2023-02-12T03:05:08;49.20;;;28.10;;
27313;SDS011;14800;48.174;9.798;2023-02-12T03:07:43;44.80;;;27.23;;
27313;SDS011;14800;48.174;9.798;2023-02-12T03:10:17;45.92;;;25.65;;
27313;SDS011;14800;48.174;9.798;2023-02-12T03:12:59;46.30;;;27.50;;
27313;SDS011;14800;48.174;9.798;2023-02-12T03:15:45;43.90;;;26.40;;
27313;SDS011;14800;48.174;9.798;2023-02-12T03:18:18;46.65;;;27.23;;
27313;SDS011;14800;48.174;9.798;2023-02-12T03:20:52;47.40;;;28.33;;
27313;SDS011;14800;48.174;9.798;2023-02-12T03:23:24;49.63;;;29.23;;
27313;SDS011;14800;48.174;9.798;2023-02-12T03:28:28;51.92;;;29.20;;
27313;SDS011;14800;48.174;9.798;2023-02-12T03:37:04;51.70;;;30.83;;
27313;SDS011;14800;48.174;9.798;2023-02-12T03:39:51;47.20;;;29.05;;
27313;SDS011;14800;48.174;9.798;2023-02-12T03:44:51;49.50;;;27.80;;
27313;SDS011;14800;48.174;9.798;2023-02-12T03:50:11;49.97;;;29.90;;
27313;SDS011;14800;48.174;9.798;2023-02-12T03:52:41;50.30;;;29.20;;
27313;SDS011;14800;48.174;9.798;2023-02-12T03:55:07;47.63;;;28.70;;
27313;SDS011;14800;48.174;9.798;2023-02-12T03:57:37;48.38;;;27.92;;
27313;SDS011;14800;48.174;9.798;2023-02-12T04:00:08;49.15;;;27.60;;
27313;SDS011;14800;48.174;9.798;2023-02-12T04:02:36;53.15;;;31.13;;
27313;SDS011;14800;48.174;9.798;2023-02-12T04:05:06;47.70;;;30.40;;
27313;SDS011;14800;48.174;9.798;2023-02-12T04:07:33;50.33;;;30.35;;
27313;SDS011;14800;48.174;9.798;2023-02-12T04:10:01;49.05;;;29.25;;
27313;SDS011;14800;48.174;9.798;2023-02-12T04:13:02;50.03;;;30.10;;
27313;SDS011;14800;48.174;9.798;2023-02-12T04:15:32;49.72;;;29.15;;
27313;SDS011;14800;48.174;9.798;2023-02-12T04:18:19;50.08;;;28.05;;
27313;SDS011;14800;48.174;9.798;2023-02-12T04:23:45;51.13;;;30.20;;
27313;SDS011;14800;48.174;9.798;2023-02-12T04:31:35;47.55;;;29.58;;
27313;SDS011;14800;48.174;9.798;2023-02-12T04:34:17;48.33;;;29.20;;
27313;SDS011;14800;48.174;9.798;2023-02-12T04:37:05;49.15;;;28.65;;
27313;SDS011;14800;48.174;9.798;2023-02-12T04:39:46;50.70;;;30.13;;
27313;SDS011;14800;48.174;9.798;2023-02-12T04:42:13;49.75;;;29.70;;
27313;SDS011;14800;48.174;9.798;2023-02-12T04:44:40;54.72;;;31.17;;
27313;SDS011;14800;48.174;9.798;2023-02-12T04:47:09;51.28;;;30.23;;
27313;SDS011;14800;48.174;9.798;2023-02-12T04:49:36;55.90;;;30.75;;
27313;SDS011;14800;48.174;9.798;2023-02-12T04:52:02;50.72;;;30.88;;
27313;SDS011;14800;48.174;9.798;2023-02-12T04:54:27;50.70;;;30.60;;
27313;SDS011;14800;48.174;9.798;2023-02-12T04:56:53;50.55;;;31.35;;
27313;SDS011;14800;48.174;9.798;2023-02-12T04:59:19;52.05;;;31.17;;
27313;SDS011;14800;48.174;9.798;2023-02-12T05:01:44;56.33;;;32.90;;
27313;SDS011;14800;48.174;9.798;2023-02-12T05:04:11;46.60;;;28.85;;
27313;SDS011;14800;48.174;9.798;2023-02-12T05:06:38;53.80;;;31.98;;
27313;SDS011;14800;48.174;9.798;2023-02-12T05:09:05;53.28;;;32.38;;
27313;SDS011;14800;48.174;9.798;2023-02-12T05:11:31;56.22;;;32.88;;
27313;SDS011;14800;48.174;9.798;2023-02-12T05:13:57;54.35;;;32.28;;
27313;SDS011;14800;48.174;9.798;2023-02-12T05:16:23;55.83;;;32.65;;
27313;SDS011;14800;48.174;9.798;2023-02-12T05:18:49;51.80;;;31.38;;
27313;SDS011;14800;48.174;9.798;2023-02-12T05:21:15;53.90;;;32.60;;
27313;SDS011;14800;48.174;9.798;2023-02-12T05:23:40;54.50;;;31.08;;
27313;SDS011;14800;48.174;9.798;2023-02-12T05:26:07;56.47;;;31.98;;
27313;SDS011;14800;48.174;9.798;2023-02-12T05:28:39;54.55;;;31.33;;
27313;SDS011;14800;48.174;9.798;2023-02-12T05:31:06;50.13;;;30.85;;
27313;SDS011;14800;48.174;9.798;2023-02-12T05:33:33;50.72;;;31.13;;
27313;SDS011;14800;48.174;9.798;2023-02-12T05:36:06;53.30;;;31.33;;
27313;SDS011;14800;48.174;9.798;2023-02-12T05:38:33;54.58;;;30.88;;
27313;SDS011;14800;48.174;9.798;2023-02-12T05:41:00;52.03;;;30.23;;
27313;SDS011;14800;48.174;9.798;2023-02-12T05:43:27;52.35;;;31.35;;
27313;SDS011;14800;48.174;9.798;2023-02-12T05:45:52;51.95;;;31.40;;
27313;SDS011;14800;48.174;9.798;2023-02-12T05:48:18;54.75;;;30.75;;
27313;SDS011;14800;48.174;9.798;2023-02-12T05:50:43;55.85;;;31.02;;
27313;SDS011;14800;48.174;9.798;2023-02-12T05:53:09;52.90;;;30.63;;
27313;SDS011;14800;48.174;9.798;2023-02-12T05:55:34;53.08;;;31.30;;
27313;SDS011;14800;48.174;9.798;2023-02-12T05:58:00;49.97;;;30.50;;
27313;SDS011;14800;48.174;9.798;2023-02-12T06:00:25;52.17;;;30.73;;
27313;SDS011;14800;48.174;9.798;2023-02-12T06:02:51;53.58;;;29.25;;
27313;SDS011;14800;48.174;9.798;2023-02-12T06:05:16;50.83;;;30.17;;
27313;SDS011;14800;48.174;9.798;2023-02-12T06:07:42;52.60;;;30.85;;
27313;SDS011;14800;48.174;9.798;2023-02-12T06:10:08;58.80;;;31.95;;
27313;SDS011;14800;48.174;9.798;2023-02-12T06:12:33;56.22;;;31.95;;
27313;SDS011;14800;48.174;9.798;2023-02-12T06:14:59;50.58;;;30.10;;
27313;SDS011;14800;48.174;9.798;2023-02-12T06:17:25;55.17;;;29.90;;
27313;SDS011;14800;48.174;9.798;2023-02-12T06:19:50;49.38;;;29.25;;
27313;SDS011;14800;48.174;9.798;2023-02-12T06:22:16;47.75;;;29.33;;
27313;SDS011;14800;48.174;9.798;2023-02-12T06:24:41;45.63;;;28.15;;
27313;SDS011;14800;48.174;9.798;2023-02-12T06:27:07;48.83;;;28.88;;
27313;SDS011;14800;48.174;9.798;2023-02-12T06:29:32;49.45;;;29.92;;
27313;SDS011;14800;48.174;9.798;2023-02-12T06:31:58;55.30;;;32.10;;
27313;SDS011;14800;48.174;9.798;2023-02-12T06:34:23;58.97;;;32.33;;
27313;SDS011;14800;48.174;9.798;2023-02-12T06:36:49;55.10;;;33.38;;
27313;SDS011;14800;48.174;9.798;2023-02-12T06:39:15;60.13;;;31.65;;
27313;SDS011;14800;48.174;9.798;2023-02-12T06:41:41;52.13;;;30.80;;
27313;SDS011;14800;48.174;9.798;2023-02-12T06:44:09;57.60;;;33.17;;
27313;SDS011;14800;48.174;9.798;2023-02-12T06:46:36;59.90;;;33.55;;
27313;SDS011;14800;48.174;9.798;2023-02-12T06:49:01;61.20;;;33.78;;
27313;SDS011;14800;48.174;9.798;2023-02-12T06:51:28;54.38;;;32.17;;
27313;SDS011;14800;48.174;9.798;2023-02-12T06:53:55;55.13;;;32.58;;
27313;SDS011;14800;48.174;9.798;2023-02-12T06:56:21;60.63;;;33.13;;
27313;SDS011;14800;48.174;9.798;2023-02-12T06:58:51;61.92;;;33.70;;
27313;SDS011;14800;48.174;9.798;2023-02-12T07:01:20;58.80;;;33.42;;
27313;SDS011;14800;48.174;9.798;2023-02-12T07:03:54;76.45;;;37.55;;
27313;SDS011;14800;48.174;9.798;2023-02-12T07:06:26;75.85;;;39.28;;
27313;SDS011;14800;48.174;9.798;2023-02-12T07:08:54;63.13;;;35.90;;
27313;SDS011;14800;48.174;9.798;2023-02-12T07:11:24;62.17;;;35.08;;
27313;SDS011;14800;48.174;9.798;2023-02-12T07:13:50;60.47;;;33.97;;
27313;SDS011;14800;48.174;9.798;2023-02-12T07:16:16;59.22;;;33.40;;
27313;SDS011;14800;48.174;9.798;2023-02-12T07:18:42;55.50;;;32.28;;
27313;SDS011;14800;48.174;9.798;2023-02-12T07:21:09;55.38;;;31.95;;
27313;SDS011;14800;48.174;9.798;2023-02-12T07:23:35;59.55;;;32.03;;
27313;SDS011;14800;48.174;9.798;2023-02-12T07:26:03;53.92;;;30.38;;
27313;SDS011;14800;48.174;9.798;2023-02-12T07:28:30;56.20;;;31.73;;
27313;SDS011;14800;48.174;9.798;2023-02-12T07:31:04;53.67;;;29.23;;
27313;SDS011;14800;48.174;9.798;2023-02-12T07:33:33;54.70;;;29.17;;
27313;SDS011;14800;48.174;9.798;2023-02-12T07:35:59;56.47;;;28.63;;
27313;SDS011;14800;48.174;9.798;2023-02-12T07:38:25;55.03;;;27.55;;
27313;SDS011;14800;48.174;9.798;2023-02-12T07:40:52;57.72;;;28.73;;
27313;SDS011;14800;48.174;9.798;2023-02-12T07:43:17;50.33;;;26.65;;
27313;SDS011;14800;48.174;9.798;2023-02-12T07:45:43;49.88;;;26.13;;
27313;SDS011;14800;48.174;9.798;2023-02-12T07:48:08;52.45;;;25.02;;
27313;SDS011;14800;48.174;9.798;2023-02-12T07:50:34;45.80;;;23.25;;
27313;SDS011;14800;48.174;9.798;2023-02-12T07:52:59;49.97;;;25.00;;
27313;SDS011;14800;48.174;9.798;2023-02-12T07:55:25;49.35;;;25.27;;
27313;SDS011;14800;48.174;9.798;2023-02-12T07:57:51;50.20;;;25.33;;
27313;SDS011;14800;48.174;9.798;2023-02-12T08:00:16;51.53;;;25.00;;
27313;SDS011;14800;48.174;9.798;2023-02-12T08:02:42;51.10;;;25.70;;
27313;SDS011;14800;48.174;9.798;2023-02-12T08:05:08;55.72;;;26.05;;
27313;SDS011;14800;48.174;9.798;2023-02-12T08:07:33;50.22;;;25.33;;
27313;SDS011;14800;48.174;9.798;2023-02-12T08:09:59;51.20;;;25.08;;
27313;SDS011;14800;48.174;9.798;2023-02-12T08:12:24;49.92;;;24.35;;
27313;SDS011;14800;48.174;9.798;2023-02-12T08:14:50;50.97;;;24.58;;
27313;SDS011;14800;48.174;9.798;2023-02-12T08:17:15;49.67;;;24.48;;
27313;SDS011;14800;48.174;9.798;2023-02-12T08:19:41;44.00;;;23.77;;
27313;SDS011;14800;48.174;9.798;2023-02-12T08:22:06;45.42;;;23.67;;
27313;SDS011;14800;48.174;9.798;2023-02-12T08:24:32;44.80;;;22.58;;
27313;SDS011;14800;48.174;9.798;2023-02-12T08:26:58;46.85;;;24.23;;
27313;SDS011;14800;48.174;9.798;2023-02-12T08:29:25;47.33;;;23.60;;
27313;SDS011;14800;48.174;9.798;2023-02-12T08:31:56;41.22;;;22.98;;
27313;SDS011;14800;48.174;9.798;2023-02-12T08:34:27;46.10;;;25.13;;
27313;SDS011;14800;48.174;9.798;2023-02-12T08:36:55;47.20;;;25.65;;
27313;SDS011;14800;48.174;9.798;2023-02-12T08:39:22;50.90;;;27.40;;
27313;SDS011;14800;48.174;9.798;2023-02-12T08:41:48;45.88;;;25.02;;
27313;SDS011;14800;48.174;9.798;2023-02-12T08:44:14;50.40;;;25.88;;
27313;SDS011;14800;48.174;9.798;2023-02-12T08:46:45;47.17;;;25.35;;
27313;SDS011;14800;48.174;9.798;2023-02-12T08:49:12;49.42;;;25.70;;
27313;SDS011;14800;48.174;9.798;2023-02-12T08:51:40;52.72;;;26.45;;
27313;SDS011;14800;48.174;9.798;2023-02-12T08:54:13;51.10;;;24.17;;
27313;SDS011;14800;48.174;9.798;2023-02-12T08:56:41;50.20;;;24.95;;
27313;SDS011;14800;48.174;9.798;2023-02-12T08:59:09;47.38;;;24.48;;
27313;SDS011;14800;48.174;9.798;2023-02-12T09:01:36;51.63;;;25.42;;
27313;SDS011;14800;48.174;9.798;2023-02-12T09:04:03;47.47;;;24.85;;
27313;SDS011;14800;48.174;9.798;2023-02-12T09:06:31;47.67;;;24.63;;
27313;SDS011;14800;48.174;9.798;2023-02-12T09:08:58;44.83;;;23.75;;
27313;SDS011;14800;48.174;9.798;2023-02-12T09:11:25;44.00;;;23.35;;
27313;SDS011;14800;48.174;9.798;2023-02-12T09:13:55;32.13;;;17.02;;
27313;SDS011;14800;48.174;9.798;2023-02-12T09:16:31;22.90;;;13.27;;
27313;SDS011;14800;48.174;9.798;2023-02-12T09:18:58;15.60;;;8.52;;
27313;SDS011;14800;48.174;9.798;2023-02-12T09:21:24;10.82;;;6.53;;
27313;SDS011;14800;48.174;9.798;2023-02-12T09:23:50;9.35;;;5.90;;
27313;SDS011;14800;48.174;9.798;2023-02-12T09:26:17;8.80;;;5.35;;
27313;SDS011;14800;48.174;9.798;2023-02-12T09:28:44;6.97;;;4.70;;
27313;SDS011;14800;48.174;9.798;2023-02-12T09:31:11;7.18;;;5.18;;
27313;SDS011;14800;48.174;9.798;2023-02-12T09:33:39;6.93;;;4.78;;
27313;SDS011;14800;48.174;9.798;2023-02-12T09:36:09;6.88;;;4.78;;
27313;SDS011;14800;48.174;9.798;2023-02-12T09:38:36;6.60;;;4.88;;
27313;SDS011;14800;48.174;9.798;2023-02-12T09:43:43;6.13;;;4.40;;
27313;SDS011;14800;48.174;9.798;2023-02-12T09:46:29;6.85;;;4.90;;
27313;SDS011;14800;48.174;9.798;2023-02-12T09:51:33;7.47;;;5.30;;
27313;SDS011;14800;48.174;9.798;2023-02-12T09:54:05;6.10;;;4.55;;
27313;SDS011;14800;48.174;9.798;2023-02-12T09:56:36;6.18;;;4.43;;
27313;SDS011;14800;48.174;9.798;2023-02-12T09:59:05;7.07;;;5.00;;
27313;SDS011;14800;48.174;9.798;2023-02-12T10:01:32;6.75;;;4.93;;
27313;SDS011;14800;48.174;9.798;2023-02-12T10:03:59;6.63;;;4.82;;
27313;SDS011;14800;48.174;9.798;2023-02-12T10:06:29;7.70;;;5.22;;
27313;SDS011;14800;48.174;9.798;2023-02-12T10:14:51;6.85;;;5.03;;
27313;SDS011;14800;48.174;9.798;2023-02-12T10:25:48;9.13;;;6.55;;
27313;SDS011;14800;48.174;9.798;2023-02-12T10:28:16;9.07;;;6.18;;
27313;SDS011;14800;48.174;9.798;2023-02-12T10:30:55;9.35;;;6.40;;
27313;SDS011;14800;48.174;9.798;2023-02-12T10:36:44;9.90;;;6.70;;
27313;SDS011;14800;48.174;9.798;2023-02-12T10:39:02;9.98;;;6.13;;
27313;SDS011;14800;48.174;9.798;2023-02-12T10:41:51;10.70;;;7.15;;
27313;SDS011;14800;48.174;9.798;2023-02-12T10:44:20;9.70;;;6.70;;
27313;SDS011;14800;48.174;9.798;2023-02-12T10:46:45;11.50;;;6.82;;
27313;SDS011;14800;48.174;9.798;2023-02-12T10:49:12;10.57;;;6.45;;
27313;SDS011;14800;48.174;9.798;2023-02-12T10:54:35;12.50;;;6.33;;
27313;SDS011;14800;48.174;9.798;2023-02-12T10:59:50;6.55;;;4.70;;
27313;SDS011;14800;48.174;9.798;2023-02-12T11:04:43;5.05;;;3.78;;
27313;SDS011;14800;48.174;9.798;2023-02-12T11:07:08;5.78;;;3.65;;
27313;SDS011;14800;48.174;9.798;2023-02-12T11:09:35;4.90;;;3.50;;
27313;SDS011;14800;48.174;9.798;2023-02-12T11:12:51;4.97;;;3.42;;
27313;SDS011;14800;48.174;9.798;2023-02-12T11:14:59;4.88;;;3.70;;
27313;SDS011;14800;48.174;9.798;2023-02-12T11:17:35;6.18;;;4.20;;
27313;SDS011;14800;48.174;9.798;2023-02-12T11:22:57;9.68;;;5.85;;
27313;SDS011;14800;48.174;9.798;2023-02-12T11:25:31;12.48;;;8.00;;
27313;SDS011;14800;48.174;9.798;2023-02-12T11:28:03;11.57;;;7.10;;
27313;SDS011;14800;48.174;9.798;2023-02-12T11:30:50;11.23;;;7.68;;
27313;SDS011;14800;48.174;9.798;2023-02-12T11:33:21;9.65;;;6.75;;
27313;SDS011;14800;48.174;9.798;2023-02-12T11:38:39;8.88;;;6.55;;
27313;SDS011;14800;48.174;9.798;2023-02-12T11:43:50;7.72;;;5.85;;
27313;SDS011;14800;48.174;9.798;2023-02-12T11:46:20;9.40;;;6.57;;
27313;SDS011;14800;48.174;9.798;2023-02-12T11:48:49;8.27;;;6.03;;
27313;SDS011;14800;48.174;9.798;2023-02-12T11:51:17;7.88;;;5.50;;
27313;SDS011;14800;48.174;9.798;2023-02-12T11:53:51;7.50;;;5.23;;
27313;SDS011;14800;48.174;9.798;2023-02-12T11:56:18;8.75;;;5.43;;
27313;SDS011;14800;48.174;9.798;2023-02-12T11:58:48;7.20;;;5.28;;
27313;SDS011;14800;48.174;9.798;2023-02-12T12:14:51;10.57;;;6.97;;
27313;SDS011;14800;48.174;9.798;2023-02-12T12:17:44;9.18;;;6.22;;
27313;SDS011;14800;48.174;9.798;2023-02-12T12:21:24;7.90;;;5.30;;
27313;SDS011;14800;48.174;9.798;2023-02-12T12:23:43;8.98;;;5.93;;
27313;SDS011;14800;48.174;9.798;2023-02-12T12:26:26;7.60;;;5.50;;
27313;SDS011;14800;48.174;9.798;2023-02-12T12:31:20;5.60;;;4.30;;
27313;SDS011;14800;48.174;9.798;2023-02-12T12:39:34;7.18;;;4.47;;
27313;SDS011;14800;48.174;9.798;2023-02-12T12:44:55;9.35;;;5.55;;
27313;SDS011;14800;48.174;9.798;2023-02-12T13:09:46;12.57;;;7.95;;
27313;SDS011;14800;48.174;9.798;2023-02-12T13:15:16;14.43;;;8.80;;
27313;SDS011;14800;48.174;9.798;2023-02-12T13:18:05;15.43;;;8.80;;
27313;SDS011;14800;48.174;9.798;2023-02-12T13:23:37;13.52;;;8.55;;
27313;SDS011;14800;48.174;9.798;2023-02-12T13:26:20;14.35;;;8.35;;
27313;SDS011;14800;48.174;9.798;2023-02-12T13:28:55;14.07;;;8.25;;
27313;SDS011;14800;48.174;9.798;2023-02-12T13:31:32;14.77;;;8.93;;
27313;SDS011;14800;48.174;9.798;2023-02-12T13:34:06;15.73;;;8.70;;
27313;SDS011;14800;48.174;9.798;2023-02-12T13:36:37;14.20;;;8.45;;
27313;SDS011;14800;48.174;9.798;2023-02-12T13:39:15;14.82;;;9.10;;
27313;SDS011;14800;48.174;9.798;2023-02-12T13:41:52;13.70;;;8.75;;
27313;SDS011;14800;48.174;9.798;2023-02-12T13:44:41;14.70;;;8.73;;
27313;SDS011;14800;48.174;9.798;2023-02-12T13:47:14;12.30;;;8.45;;
27313;SDS011;14800;48.174;9.798;2023-02-12T13:52:59;13.65;;;8.20;;
27313;SDS011;14800;48.174;9.798;2023-02-12T13:55:37;16.63;;;9.77;;
27313;SDS011;14800;48.174;9.798;2023-02-12T14:01:09;15.68;;;9.45;;
27313;SDS011;14800;48.174;9.798;2023-02-12T14:03:37;16.08;;;10.00;;
27313;SDS011;14800;48.174;9.798;2023-02-12T14:06:10;16.15;;;9.98;;
27313;SDS011;14800;48.174;9.798;2023-02-12T14:08:42;13.13;;;9.02;;
27313;SDS011;14800;48.174;9.798;2023-02-12T14:11:17;15.73;;;9.75;;
27313;SDS011;14800;48.174;9.798;2023-02-12T14:13:55;14.65;;;8.98;;
27313;SDS011;14800;48.174;9.798;2023-02-12T14:19:01;16.92;;;9.85;;
27313;SDS011;14800;48.174;9.798;2023-02-12T14:21:57;16.17;;;10.13;;
27313;SDS011;14800;48.174;9.798;2023-02-12T14:29:29;14.40;;;8.90;;
27313;SDS011;14800;48.174;9.798;2023-02-12T14:31:55;15.65;;;9.02;;
27313;SDS011;14800;48.174;9.798;2023-02-12T14:36:46;15.05;;;9.52;;
27313;SDS011;14800;48.174;9.798;2023-02-12T14:41:47;15.00;;;9.10;;
27313;SDS011;14800;48.174;9.798;2023-02-12T14:46:48;16.10;;;9.55;;
27313;SDS011;14800;48.174;9.798;2023-02-12T14:54:33;15.55;;;9.18;;
27313;SDS011;14800;48.174;9.798;2023-02-12T15:02:52;15.57;;;9.50;;
27313;SDS011;14800;48.174;9.798;2023-02-12T15:05:23;16.02;;;9.40;;
27313;SDS011;14800;48.174;9.798;2023-02-12T15:07:59;15.82;;;8.98;;
27313;SDS011;14800;48.174;9.798;2023-02-12T15:10:33;15.00;;;9.32;;
27313;SDS011;14800;48.174;9.798;2023-02-12T15:13:14;15.32;;;8.82;;
27313;SDS011;14800;48.174;9.798;2023-02-12T15:18:23;16.10;;;8.82;;
27313;SDS011;14800;48.174;9.798;2023-02-12T15:21:03;16.02;;;9.70;;
27313;SDS011;14800;48.174;9.798;2023-02-12T15:24:06;15.85;;;8.95;;
27313;SDS011;14800;48.174;9.798;2023-02-12T15:29:27;13.98;;;8.48;;
27313;SDS011;14800;48.174;9.798;2023-02-12T15:32:05;14.15;;;8.60;;
27313;SDS011;14800;48.174;9.798;2023-02-12T15:34:35;14.25;;;8.30;;
27313;SDS011;14800;48.174;9.798;2023-02-12T15:37:03;13.25;;;8.35;;
27313;SDS011;14800;48.174;9.798;2023-02-12T15:39:47;12.98;;;8.07;;
27313;SDS011;14800;48.174;9.798;2023-02-12T15:45:38;13.07;;;7.60;;
27313;SDS011;14800;48.174;9.798;2023-02-12T15:47:54;12.52;;;8.32;;
27313;SDS011;14800;48.174;9.798;2023-02-12T15:50:29;12.85;;;7.80;;
27313;SDS011;14800;48.174;9.798;2023-02-12T15:52:56;13.88;;;8.18;;
27313;SDS011;14800;48.174;9.798;2023-02-12T15:55:22;12.23;;;7.75;;
27313;SDS011;14800;48.174;9.798;2023-02-12T15:57:52;13.50;;;8.10;;
27313;SDS011;14800;48.174;9.798;2023-02-12T16:02:53;13.18;;;8.10;;
27313;SDS011;14800;48.174;9.798;2023-02-12T16:05:19;11.52;;;7.55;;
27313;SDS011;14800;48.174;9.798;2023-02-12T16:07:46;12.30;;;7.75;;
27313;SDS011;14800;48.174;9.798;2023-02-12T16:10:13;11.75;;;7.70;;
27313;SDS011;14800;48.174;9.798;2023-02-12T16:12:42;10.73;;;7.03;;
27313;SDS011;14800;48.174;9.798;2023-02-12T16:17:54;12.60;;;7.22;;
27313;SDS011;14800;48.174;9.798;2023-02-12T16:20:23;9.90;;;6.32;;
27313;SDS011;14800;48.174;9.798;2023-02-12T16:22:51;10.57;;;6.40;;
27313;SDS011;14800;48.174;9.798;2023-02-12T16:28:02;12.13;;;7.20;;
27313;SDS011;14800;48.174;9.798;2023-02-12T16:30:51;12.80;;;7.60;;
27313;SDS011;14800;48.174;9.798;2023-02-12T16:36:26;11.63;;;7.30;;
27313;SDS011;14800;48.174;9.798;2023-02-12T16:38:51;14.35;;;9.00;;
27313;SDS011;14800;48.174;9.798;2023-02-12T16:41:31;14.32;;;8.70;;
27313;SDS011;14800;48.174;9.798;2023-02-12T16:46:24;14.88;;;9.68;;
27313;SDS011;14800;48.174;9.798;2023-02-12T16:48:50;17.02;;;9.63;;
27313;SDS011;14800;48.174;9.798;2023-02-12T16:51:25;16.92;;;10.60;;
27313;SDS011;14800;48.174;9.798;2023-02-12T16:53:58;17.95;;;10.38;;
27313;SDS011;14800;48.174;9.798;2023-02-12T16:56:29;14.25;;;8.70;;
27313;SDS011;14800;48.174;9.798;2023-02-12T16:58:58;14.02;;;8.40;;
27313;SDS011;14800;48.174;9.798;2023-02-12T17:03:53;15.55;;;8.68;;
27313;SDS011;14800;48.174;9.798;2023-02-12T17:06:20;15.10;;;9.02;;
27313;SDS011;14800;48.174;9.798;2023-02-12T17:08:48;15.90;;;9.45;;
27313;SDS011;14800;48.174;9.798;2023-02-12T17:11:14;17.67;;;9.90;;
27313;SDS011;14800;48.174;9.798;2023-02-12T17:13:42;18.63;;;10.25;;
27313;SDS011;14800;48.174;9.798;2023-02-12T17:16:11;19.13;;;10.68;;
27313;SDS011;14800;48.174;9.798;2023-02-12T17:18:38;20.33;;;11.23;;
27313;SDS011;14800;48.174;9.798;2023-02-12T17:21:04;22.08;;;10.93;;
27313;SDS011;14800;48.174;9.798;2023-02-12T17:23:42;32.25;;;18.80;;
27313;SDS011;14800;48.174;9.798;2023-02-12T17:26:08;50.38;;;28.52;;
27313;SDS011;14800;48.174;9.798;2023-02-12T17:28:36;39.42;;;20.75;;
27313;SDS011;14800;48.174;9.798;2023-02-12T17:31:02;32.85;;;18.83;;
27313;SDS011;14800;48.174;9.798;2023-02-12T17:33:30;32.45;;;18.63;;
27313;SDS011;14800;48.174;9.798;2023-02-12T17:35:57;26.42;;;16.17;;
27313;SDS011;14800;48.174;9.798;2023-02-12T17:38:23;22.23;;;12.88;;
27313;SDS011;14800;48.174;9.798;2023-02-12T17:40:48;20.33;;;11.15;;
27313;SDS011;14800;48.174;9.798;2023-02-12T17:43:14;17.38;;;10.55;;
27313;SDS011;14800;48.174;9.798;2023-02-12T17:45:40;18.63;;;10.35;;
27313;SDS011;14800;48.174;9.798;2023-02-12T17:48:09;16.02;;;9.57;;
27313;SDS011;14800;48.174;9.798;2023-02-12T17:50:36;19.60;;;10.32;;
27313;SDS011;14800;48.174;9.798;2023-02-12T17:53:02;17.48;;;9.95;;
27313;SDS011;14800;48.174;9.798;2023-02-12T17:55:28;19.02;;;10.65;;
27313;SDS011;14800;48.174;9.798;2023-02-12T17:57:53;18.88;;;10.35;;